createdAt,value
2022-09-26T00:00:13.704Z,100744.31
2022-09-26T00:05:15.394Z,100741.00
2022-09-26T00:10:16.933Z,100720.25
2022-09-26T00:15:18.405Z,100707.41
2022-09-26T00:20:19.887Z,100698.53
2022-09-26T00:25:21.373Z,100687.38
2022-09-26T00:30:22.912Z,100662.25
2022-09-26T00:35:33.684Z,100658.47
2022-09-26T00:40:35.564Z,100639.09
2022-09-26T00:45:37.189Z,100629.84
2022-09-26T00:50:41.717Z,100619.06
2022-09-26T00:55:48.091Z,100612.56
2022-09-26T01:00:51.379Z,100590.84
2022-09-26T01:05:54.024Z,100585.16
2022-09-26T01:10:56.796Z,100564.97
2022-09-26T01:15:58.317Z,100558.44
2022-09-26T01:21:07.234Z,100556.34
2022-09-26T01:26:48.049Z,100542.38
2022-09-26T01:32:22.512Z,100534.09
2022-09-26T01:37:46.339Z,100513.78
2022-09-26T01:43:09.525Z,100507.16
2022-09-26T01:48:17.083Z,100503.41
2022-09-26T01:53:25.628Z,100489.44
2022-09-26T01:58:39.454Z,100488.41
2022-09-26T02:03:48.986Z,100466.03
2022-09-26T02:09:23.160Z,100459.06
2022-09-26T02:14:31.882Z,100444.69
2022-09-26T02:19:41.668Z,100430.78
2022-09-26T02:24:43.138Z,100413.34
2022-09-26T02:29:44.815Z,100400.09
2022-09-26T02:34:48.159Z,100394.63
2022-09-26T02:39:51.983Z,100376.97
2022-09-26T02:45:21.689Z,100379.34
2022-09-26T02:50:41.762Z,100368.38
2022-09-26T02:56:28.416Z,100347.50
2022-09-26T03:01:48.380Z,100341.63
2022-09-26T03:06:58.175Z,100327.47
2022-09-26T03:12:02.566Z,100299.25
2022-09-26T03:17:04.814Z,100297.19
2022-09-26T03:22:06.382Z,100280.94
2022-09-26T03:27:09.181Z,100281.97
2022-09-26T03:32:10.712Z,100270.19
2022-09-26T03:37:12.373Z,100254.13
2022-09-26T03:42:14.592Z,100241.69
2022-09-26T03:47:18.064Z,100231.53
2022-09-26T03:52:19.553Z,100218.63
2022-09-26T03:57:21.229Z,100206.00
2022-09-26T04:02:22.827Z,100196.72
2022-09-26T04:07:24.426Z,100184.28
2022-09-26T04:12:25.903Z,100173.13
2022-09-26T04:17:29.246Z,100156.72
2022-09-26T04:22:30.730Z,100155.41
2022-09-26T04:27:32.164Z,100147.19
2022-09-26T04:32:33.643Z,100130.16
2022-09-26T04:37:37.082Z,100122.31
2022-09-26T04:42:38.950Z,100116.59
2022-09-26T04:47:40.402Z,100099.34
2022-09-26T04:52:41.901Z,100081.56
2022-09-26T04:57:43.359Z,100075.91
2022-09-26T05:02:48.605Z,100061.59
2022-09-26T05:07:50.061Z,100058.84
2022-09-26T05:12:51.603Z,100044.00
2022-09-26T05:18:00.577Z,100033.69
2022-09-26T05:23:02.492Z,100031.13
2022-09-26T05:28:03.968Z,100025.22
2022-09-26T05:33:05.402Z,99997.44
2022-09-26T05:38:07.016Z,99984.78
2022-09-26T05:43:08.497Z,99982.50
2022-09-26T05:48:09.963Z,99977.88
2022-09-26T05:53:11.633Z,99965.69
2022-09-26T05:58:13.737Z,99960.63
2022-09-26T06:03:15.799Z,99954.31
2022-09-26T06:08:17.435Z,99952.41
2022-09-26T06:13:21.304Z,99940.41
2022-09-26T06:18:23.023Z,99940.69
2022-09-26T06:23:24.554Z,99917.31
2022-09-26T06:28:27.375Z,99908.75
2022-09-26T06:33:33.227Z,99917.97
2022-09-26T06:38:36.158Z,99919.88
2022-09-26T06:43:37.759Z,99891.84
2022-09-26T06:48:39.273Z,99887.66
2022-09-26T06:53:42.213Z,99881.97
2022-09-26T06:58:43.715Z,99880.91
2022-09-26T07:03:46.109Z,99871.88
2022-09-26T07:09:02.249Z,99859.03
2022-09-26T07:14:04.135Z,99855.47
2022-09-26T07:19:05.649Z,99846.81
2022-09-26T07:24:08.659Z,99844.72
2022-09-26T07:29:10.450Z,99835.03
2022-09-26T07:34:18.170Z,99818.44
2022-09-26T07:39:20.138Z,99805.03
2022-09-26T07:50:01.706Z,99808.88
2022-09-26T07:55:03.905Z,99797.25
2022-09-26T08:00:12.814Z,99779.56
2022-09-26T08:05:20.123Z,99782.25
2022-09-26T08:10:24.244Z,99780.50
2022-09-26T08:15:25.713Z,99770.59
2022-09-26T08:20:32.043Z,99762.81
2022-09-26T08:25:33.953Z,99745.81
2022-09-26T08:30:35.747Z,99743.38
2022-09-26T08:35:38.801Z,99752.41
2022-09-26T08:40:49.613Z,99741.41
2022-09-26T08:46:41.802Z,99724.31
2022-09-26T08:51:52.160Z,99733.16
2022-09-26T08:57:00.129Z,99723.06
2022-09-26T09:02:10.808Z,99726.84
2022-09-26T09:07:22.019Z,99721.56
2022-09-26T09:12:45.707Z,99704.94
2022-09-26T09:18:02.253Z,99691.28
2022-09-26T09:23:22.683Z,99664.81
2022-09-26T09:28:33.242Z,99671.38
2022-09-26T09:33:47.798Z,99670.94
2022-09-26T09:38:51.049Z,99673.91
2022-09-26T09:43:59.966Z,99674.06
2022-09-26T09:49:10.350Z,99698.47
2022-09-26T09:54:28.517Z,99683.06
2022-09-26T09:59:54.161Z,99677.59
2022-09-26T10:05:35.045Z,99685.63
2022-09-26T10:11:12.833Z,99675.34
2022-09-26T10:16:15.351Z,99659.97
2022-09-26T10:21:18.958Z,99673.47
2022-09-26T10:26:35.000Z,99659.78
2022-09-26T10:31:42.941Z,99650.78
2022-09-26T10:36:44.779Z,99649.72
2022-09-26T10:41:47.493Z,99644.25
2022-09-26T10:46:52.546Z,99641.72
2022-09-26T10:52:01.745Z,99633.31
2022-09-26T10:57:04.869Z,99628.63
2022-09-26T11:02:18.116Z,99639.78
2022-09-26T11:07:31.007Z,99633.91
2022-09-26T11:12:39.989Z,99628.22
2022-09-26T11:17:47.387Z,99619.13
2022-09-26T11:23:07.911Z,99605.41
2022-09-26T11:28:17.536Z,99615.22
2022-09-26T11:33:19.540Z,99605.03
2022-09-26T11:38:27.106Z,99619.66
2022-09-26T11:43:58.154Z,99609.25
2022-09-26T11:49:39.010Z,99608.97
2022-09-26T11:55:31.244Z,99611.94
2022-09-26T12:00:57.959Z,99596.72
2022-09-26T12:06:33.607Z,99595.22
2022-09-26T12:11:56.076Z,99584.66
2022-09-26T12:17:14.992Z,99581.38
2022-09-26T12:22:36.174Z,99576.63
2022-09-26T12:28:20.379Z,99577.41
2022-09-26T12:33:55.549Z,99591.00
2022-09-26T12:39:35.867Z,99558.47
2022-09-26T12:44:59.355Z,99567.19
2022-09-26T12:50:06.784Z,99547.81
2022-09-26T12:55:21.006Z,99558.91
2022-09-26T13:00:23.280Z,99539.78
2022-09-26T13:05:51.338Z,99536.28
2022-09-26T13:11:11.730Z,99556.09
2022-09-26T13:16:16.198Z,99547.00
2022-09-26T13:21:24.750Z,99515.41
2022-09-26T13:26:31.234Z,99528.38
2022-09-26T13:31:41.318Z,99521.91
2022-09-26T13:36:44.384Z,99533.97
2022-09-26T13:41:55.079Z,99539.69
2022-09-26T13:47:27.327Z,99537.59
2022-09-26T13:52:34.619Z,99542.50
2022-09-26T13:57:47.995Z,99537.94
2022-09-26T14:03:13.689Z,99534.75
2022-09-26T14:08:42.921Z,99538.75
2022-09-26T14:13:48.696Z,99514.47
2022-09-26T14:19:09.236Z,99510.66
2022-09-26T14:24:30.645Z,99529.13
2022-09-26T14:29:32.831Z,99520.06
2022-09-26T14:34:35.427Z,99501.28
2022-09-26T14:39:42.565Z,99487.06
2022-09-26T14:45:06.535Z,99468.16
2022-09-26T14:50:17.942Z,99496.63
2022-09-26T14:55:20.196Z,99481.91
2022-09-26T15:00:40.436Z,99486.31
2022-09-26T15:05:43.717Z,99487.94
2022-09-26T15:10:45.514Z,99505.31
2022-09-26T15:16:17.899Z,99507.28
2022-09-26T15:21:53.458Z,99494.88
2022-09-26T15:26:58.352Z,99495.22
2022-09-26T15:32:00.187Z,99486.19
2022-09-26T15:37:14.599Z,99482.66
2022-09-26T15:42:48.450Z,99479.06
2022-09-26T15:47:49.975Z,99487.97
2022-09-26T15:52:57.229Z,99483.97
2022-09-26T15:58:01.883Z,99486.72
2022-09-26T16:03:47.540Z,99497.47
2022-09-26T16:09:00.746Z,99488.25
2022-09-26T16:14:02.456Z,99500.47
2022-09-26T16:19:04.917Z,99504.03
2022-09-26T16:24:34.084Z,99507.41
2022-09-26T16:29:36.023Z,99511.84
2022-09-26T16:34:37.542Z,99511.00
2022-09-26T16:39:39.146Z,99511.19
2022-09-26T16:44:41.992Z,99513.31
2022-09-26T16:49:48.274Z,99506.59
2022-09-26T16:54:51.383Z,99502.41
2022-09-26T16:59:53.411Z,99511.47
2022-09-26T17:04:58.326Z,99514.25
2022-09-26T17:09:59.779Z,99513.22
2022-09-26T17:15:01.277Z,99521.44
2022-09-26T17:20:03.301Z,99525.25
2022-09-26T17:25:05.205Z,99524.88
2022-09-26T17:30:18.797Z,99528.22
2022-09-26T17:35:26.502Z,99532.00
2022-09-26T17:40:32.828Z,99533.25
2022-09-26T17:45:40.681Z,99520.44
2022-09-26T17:50:42.863Z,99515.81
2022-09-26T17:55:44.345Z,99518.56
2022-09-26T18:00:49.768Z,99515.22
2022-09-26T18:05:52.314Z,99511.44
2022-09-26T18:11:00.034Z,99513.28
2022-09-26T18:16:01.870Z,99508.66
2022-09-26T18:21:04.037Z,99503.00
2022-09-26T18:26:08.793Z,99522.16
2022-09-26T18:31:11.286Z,99530.75
2022-09-26T18:36:12.775Z,99547.38
2022-09-26T18:41:16.878Z,99568.22
2022-09-26T18:46:18.887Z,99571.16
2022-09-26T18:51:20.553Z,99573.25
2022-09-26T18:56:40.976Z,99581.88
2022-09-26T19:01:43.441Z,99571.72
2022-09-26T19:06:49.304Z,99568.34
2022-09-26T19:11:50.786Z,99575.31
2022-09-26T19:16:52.266Z,99584.94
2022-09-26T19:21:58.365Z,99593.78
2022-09-26T19:27:06.756Z,99594.19
2022-09-26T19:32:23.448Z,99597.97
2022-09-26T19:37:24.978Z,99592.50
2022-09-26T19:42:26.880Z,99601.75
2022-09-26T19:47:32.118Z,99592.28
2022-09-26T19:52:33.596Z,99596.06
2022-09-26T19:57:35.086Z,99589.97
2022-09-26T20:02:36.817Z,99586.34
2022-09-26T20:07:38.315Z,99582.34
2022-09-26T20:12:39.853Z,99579.38
2022-09-26T20:17:44.540Z,99581.25
2022-09-26T20:22:46.517Z,99571.56
2022-09-26T20:27:47.986Z,99567.16
2022-09-26T20:32:49.444Z,99563.81
2022-09-26T20:37:52.250Z,99568.41
2022-09-26T20:43:03.901Z,99570.72
2022-09-26T20:48:08.607Z,99575.34
2022-09-26T20:53:16.981Z,99575.34
2022-09-26T20:58:18.730Z,99573.47
2022-09-26T21:03:25.119Z,99562.97
2022-09-26T21:08:28.581Z,99565.25
2022-09-26T21:13:30.120Z,99556.22
2022-09-26T21:18:31.820Z,99556.63
2022-09-26T21:23:40.087Z,99560.00
2022-09-26T21:28:41.551Z,99566.47
2022-09-26T21:33:43.017Z,99565.00
2022-09-26T21:38:44.537Z,99567.94
2022-09-26T21:43:52.738Z,99578.00
2022-09-26T21:48:55.516Z,99572.78
2022-09-26T21:54:03.993Z,99568.81
2022-09-26T21:59:06.893Z,99575.34
2022-09-26T22:04:08.759Z,99577.38
2022-09-26T22:09:10.351Z,99565.56
2022-09-26T22:14:12.044Z,99564.91
2022-09-26T22:19:14.871Z,99575.38
2022-09-26T22:24:16.782Z,99570.56
2022-09-26T22:29:18.224Z,99570.78
2022-09-26T22:34:23.085Z,99567.88
2022-09-26T22:39:24.558Z,99572.25
2022-09-26T22:44:26.005Z,99562.09
2022-09-26T22:49:27.551Z,99560.53
2022-09-26T22:54:29.029Z,99563.88
2022-09-26T22:59:30.481Z,99563.03
2022-09-26T23:04:47.062Z,99558.81
2022-09-26T23:09:48.591Z,99571.22
2022-09-26T23:14:50.096Z,99569.13
2022-09-26T23:19:52.268Z,99564.91
2022-09-26T23:24:53.749Z,99561.97
2022-09-26T23:29:55.226Z,99574.44
2022-09-26T23:34:56.704Z,99577.38
2022-09-26T23:39:58.165Z,99574.81
2022-09-26T23:44:59.930Z,99565.41
2022-09-26T23:50:01.434Z,99568.53
2022-09-26T23:55:02.992Z,99574.19
